PWSweather.com
Personal Weather Stations
Station Observations
WXGLH1124
Southern Oaks, Indianapolis, IN 46217

Southern OaksIndianapolis, IN 46217

Lat: 39.65113, Lon: -86.16866

Elevation: 720

Station Type: Vantage Pro2

High Low Average
Temperature 60.1°F15.6°C 27.6°F-2.4°C 42.4°F5.8°C
Dew Point 56.3°F13.5°C 17.9°F-7.8°C 32.5°F0.3°C
Winds 28.0 mph 45.1 kmh 1.0 mph 1.6 kmh 9.0 mph WSW14.5 kmh WSW
Wind Gusts 36.0 mph57.9 kmh 6.0 mph9.7 kmh 16.0 mph25.7 kmh
Humidity 91% 49% 68%
Pressure 30.21 in1023.0 mb 29.42 in996.3 mb -
Precipitation 0.00 in0.0 mm - -
Hour Temp Dew Point Humidity Winds Wind Gusts Pressure Precip Precip Rate Daily Precip Total
12:00 AM 57.3°F14.1°C 55.0°F12.8°C 92% 9.0 mph SSW14.5 kmh SSW 17.0 mph27.4 kmh 29.55 in1000.7 mb 0.04 in1.0 mm 0.00 in0.0 mm 0.04 in1.0 mm
12:05 AM 57.5°F14.2°C 55.2°F12.9°C 92% 11.0 mph SSW17.7 kmh SSW 14.0 mph22.5 kmh 29.55 in1000.7 mb 0.04 in1.0 mm 0.00 in0.0 mm 0.04 in1.0 mm
12:10 AM 57.7°F14.3°C 55.4°F13.0°C 92% 9.0 mph SSE14.5 kmh SSE 14.0 mph22.5 kmh 29.55 in1000.7 mb 0.04 in1.0 mm 0.00 in0.0 mm 0.04 in1.0 mm
12:15 AM 57.8°F14.3°C 55.5°F13.1°C 92% 9.0 mph SSW14.5 kmh SSW 15.0 mph24.1 kmh 29.54 in1000.3 mb 0.03 in0.8 mm 0.00 in0.0 mm 0.04 in1.0 mm
12:20 AM 57.9°F14.4°C 55.6°F13.1°C 92% 14.0 mph SSE22.5 kmh SSE 18.0 mph29.0 kmh 29.53 in1000.0 mb 0.03 in0.8 mm 0.00 in0.0 mm 0.04 in1.0 mm
12:25 AM 58.0°F14.4°C 55.7°F13.2°C 92% 14.0 mph SSE22.5 kmh SSE 17.0 mph27.4 kmh 29.52 in999.7 mb 0.02 in0.5 mm 0.00 in0.0 mm 0.04 in1.0 mm
12:30 AM 58.1°F14.5°C 55.5°F13.1°C 91% 8.0 mph SE12.9 kmh SE 18.0 mph29.0 kmh 29.51 in999.3 mb 0.02 in0.5 mm 0.00 in0.0 mm 0.04 in1.0 mm
12:35 AM 58.2°F14.6°C 55.6°F13.1°C 91% 14.0 mph SSE22.5 kmh SSE 15.0 mph24.1 kmh 29.51 in999.3 mb 0.02 in0.5 mm 0.00 in0.0 mm 0.04 in1.0 mm
12:40 AM 58.4°F14.7°C 55.8°F13.2°C 91% 7.0 mph S11.3 kmh S 16.0 mph25.7 kmh 29.51 in999.3 mb 0.02 in0.5 mm 0.00 in0.0 mm 0.04 in1.0 mm
12:45 AM 58.4°F14.7°C 55.8°F13.2°C 91% 2.0 mph SE3.2 kmh SE 14.0 mph22.5 kmh 29.50 in999.0 mb 0.01 in0.3 mm 0.00 in0.0 mm 0.04 in1.0 mm
12:50 AM 58.4°F14.7°C 55.8°F13.2°C 91% 7.0 mph SSE11.3 kmh SSE 11.0 mph17.7 kmh 29.49 in998.6 mb 0.01 in0.3 mm 0.00 in0.0 mm 0.04 in1.0 mm
12:54 AM 58.4°F14.7°C 55.8°F13.2°C 91% 9.0 mph SSE14.5 kmh SSE 12.0 mph19.3 kmh 29.49 in998.6 mb 0.00 in0.0 mm 0.00 in0.0 mm 0.04 in1.0 mm
01:00 AM 58.4°F14.7°C 55.8°F13.2°C 91% 6.0 mph SSE9.7 kmh SSE 12.0 mph19.3 kmh 29.49 in998.6 mb 0.00 in0.0 mm 0.00 in0.0 mm 0.04 in1.0 mm
01:05 AM 58.4°F14.7°C 55.8°F13.2°C 91% 7.0 mph S11.3 kmh S 13.0 mph20.9 kmh 29.49 in998.6 mb 0.00 in0.0 mm 0.00 in0.0 mm 0.04 in1.0 mm
01:10 AM 58.4°F14.7°C 55.8°F13.2°C 91% 9.0 mph S14.5 kmh S 13.0 mph20.9 kmh 29.49 in998.6 mb 0.00 in0.0 mm 0.00 in0.0 mm 0.04 in1.0 mm
01:15 AM 58.4°F14.7°C 55.8°F13.2°C 91% 6.0 mph SW9.7 kmh SW 12.0 mph19.3 kmh 29.49 in998.6 mb 0.00 in0.0 mm 0.00 in0.0 mm 0.04 in1.0 mm
01:20 AM 58.5°F14.7°C 55.9°F13.3°C 91% 4.0 mph SSW6.4 kmh SSW 14.0 mph22.5 kmh 29.49 in998.6 mb 0.00 in0.0 mm 0.00 in0.0 mm 0.04 in1.0 mm
01:25 AM 58.5°F14.7°C 55.9°F13.3°C 91% 5.0 mph S8.0 kmh S 9.0 mph14.5 kmh 29.49 in998.6 mb 0.00 in0.0 mm 0.00 in0.0 mm 0.04 in1.0 mm
01:30 AM 58.6°F14.8°C 56.0°F13.3°C 91% 5.0 mph S8.0 kmh S 10.0 mph16.1 kmh 29.49 in998.6 mb 0.00 in0.0 mm 0.00 in0.0 mm 0.04 in1.0 mm
01:34 AM 58.7°F14.8°C 56.1°F13.4°C 91% 10.0 mph SSE16.1 kmh SSE 11.0 mph17.7 kmh 29.48 in998.3 mb 0.00 in0.0 mm 0.00 in0.0 mm 0.04 in1.0 mm
01:39 AM 58.8°F14.9°C 56.2°F13.4°C 91% 5.0 mph S8.0 kmh S 10.0 mph16.1 kmh 29.48 in998.3 mb 0.00 in0.0 mm 0.00 in0.0 mm 0.04 in1.0 mm
01:45 AM 58.9°F14.9°C 56.3°F13.5°C 91% 5.0 mph S8.0 kmh S 9.0 mph14.5 kmh 29.48 in998.3 mb 0.00 in0.0 mm 0.00 in0.0 mm 0.04 in1.0 mm
01:50 AM 58.9°F14.9°C 56.0°F13.3°C 90% 3.0 mph SSW4.8 kmh SSW 7.0 mph11.3 kmh 29.48 in998.3 mb 0.00 in0.0 mm 0.00 in0.0 mm 0.04 in1.0 mm
01:55 AM 58.9°F14.9°C 56.3°F13.5°C 91% 4.0 mph SSW6.4 kmh SSW 8.0 mph12.9 kmh 29.47 in998.0 mb 0.00 in0.0 mm 0.00 in0.0 mm 0.04 in1.0 mm
01:59 AM 59.0°F15.0°C 56.1°F13.4°C 90% 3.0 mph S4.8 kmh S 6.0 mph9.7 kmh 29.47 in998.0 mb 0.00 in0.0 mm 0.00 in0.0 mm 0.04 in1.0 mm
02:05 AM 58.9°F14.9°C 56.0°F13.3°C 90% 4.0 mph SW6.4 kmh SW 7.0 mph11.3 kmh 29.46 in997.6 mb 0.00 in0.0 mm 0.00 in0.0 mm 0.04 in1.0 mm
02:10 AM 58.8°F14.9°C 55.9°F13.3°C 90% 6.0 mph S9.7 kmh S 8.0 mph12.9 kmh 29.46 in997.6 mb 0.00 in0.0 mm 0.00 in0.0 mm 0.04 in1.0 mm
02:15 AM 58.7°F14.8°C 55.8°F13.2°C 90% 6.0 mph S9.7 kmh S 8.0 mph12.9 kmh 29.46 in997.6 mb 0.00 in0.0 mm 0.00 in0.0 mm 0.04 in1.0 mm
02:20 AM 58.7°F14.8°C 55.8°F13.2°C 90% 1.0 mph S1.6 kmh S 9.0 mph14.5 kmh 29.45 in997.3 mb 0.00 in0.0 mm 0.00 in0.0 mm 0.04 in1.0 mm
02:25 AM 58.6°F14.8°C 55.7°F13.2°C 90% 5.0 mph S8.0 kmh S 13.0 mph20.9 kmh 29.46 in997.6 mb 0.00 in0.0 mm 0.00 in0.0 mm 0.04 in1.0 mm
02:30 AM 58.8°F14.9°C 55.9°F13.3°C 90% 5.0 mph SW8.0 kmh SW 10.0 mph16.1 kmh 29.46 in997.6 mb 0.00 in0.0 mm 0.00 in0.0 mm 0.04 in1.0 mm
02:35 AM 59.1°F15.1°C 55.9°F13.3°C 89% 4.0 mph S6.4 kmh S 10.0 mph16.1 kmh 29.46 in997.6 mb 0.00 in0.0 mm 0.00 in0.0 mm 0.04 in1.0 mm
02:40 AM 59.3°F15.2°C 56.1°F13.4°C 89% 3.0 mph SW4.8 kmh SW 12.0 mph19.3 kmh 29.45 in997.3 mb 0.00 in0.0 mm 0.00 in0.0 mm 0.04 in1.0 mm
02:45 AM 59.4°F15.2°C 55.9°F13.3°C 88% 6.0 mph S9.7 kmh S 7.0 mph11.3 kmh 29.45 in997.3 mb 0.00 in0.0 mm 0.00 in0.0 mm 0.04 in1.0 mm
02:50 AM 59.5°F15.3°C 56.0°F13.3°C 88% 6.0 mph SW9.7 kmh SW 9.0 mph14.5 kmh 29.45 in997.3 mb 0.00 in0.0 mm 0.00 in0.0 mm 0.04 in1.0 mm
02:55 AM 59.5°F15.3°C 56.0°F13.3°C 88% 8.0 mph SSE12.9 kmh SSE 14.0 mph22.5 kmh 29.45 in997.3 mb 0.00 in0.0 mm 0.00 in0.0 mm 0.04 in1.0 mm
03:00 AM 59.6°F15.3°C 55.7°F13.2°C 87% 5.0 mph S8.0 kmh S 13.0 mph20.9 kmh 29.45 in997.3 mb 0.00 in0.0 mm 0.00 in0.0 mm 0.04 in1.0 mm
03:04 AM 59.6°F15.3°C 55.7°F13.2°C 87% 4.0 mph SSW6.4 kmh SSW 15.0 mph24.1 kmh 29.44 in997.0 mb 0.00 in0.0 mm 0.00 in0.0 mm 0.04 in1.0 mm
03:10 AM 59.7°F15.4°C 55.8°F13.2°C 87% 10.0 mph SW16.1 kmh SW 15.0 mph24.1 kmh 29.44 in997.0 mb 0.00 in0.0 mm 0.00 in0.0 mm 0.04 in1.0 mm
03:15 AM 59.7°F15.4°C 55.8°F13.2°C 87% 7.0 mph SSW11.3 kmh SSW 10.0 mph16.1 kmh 29.44 in997.0 mb 0.00 in0.0 mm 0.00 in0.0 mm 0.04 in1.0 mm
03:20 AM 59.7°F15.4°C 55.8°F13.2°C 87% 12.0 mph WSW19.3 kmh WSW 18.0 mph29.0 kmh 29.43 in996.6 mb 0.00 in0.0 mm 0.00 in0.0 mm 0.04 in1.0 mm
03:25 AM 60.0°F15.6°C 55.8°F13.2°C 86% 8.0 mph WSW12.9 kmh WSW 17.0 mph27.4 kmh 29.43 in996.6 mb 0.00 in0.0 mm 0.00 in0.0 mm 0.04 in1.0 mm
03:30 AM 60.0°F15.6°C 55.2°F12.9°C 84% 9.0 mph S14.5 kmh S 17.0 mph27.4 kmh 29.43 in996.6 mb 0.00 in0.0 mm 0.00 in0.0 mm 0.04 in1.0 mm
03:35 AM 60.1°F15.6°C 55.3°F12.9°C 84% 16.0 mph SW25.7 kmh SW 17.0 mph27.4 kmh 29.45 in997.3 mb 0.00 in0.0 mm 0.00 in0.0 mm 0.04 in1.0 mm
03:40 AM 58.6°F14.8°C 53.1°F11.7°C 82% 6.0 mph SSW9.7 kmh SSW 28.0 mph45.1 kmh 29.45 in997.3 mb 0.00 in0.0 mm 0.00 in0.0 mm 0.04 in1.0 mm
03:45 AM 57.5°F14.2°C 50.7°F10.4°C 78% 16.0 mph WSW25.7 kmh WSW 20.0 mph32.2 kmh 29.45 in997.3 mb 0.01 in0.3 mm 0.12 in3.0 mm 0.05 in1.3 mm
03:50 AM 57.5°F14.2°C 48.2°F9.0°C 71% 13.0 mph SW20.9 kmh SW 19.0 mph30.6 kmh 29.45 in997.3 mb 0.02 in0.5 mm 0.12 in3.0 mm 0.06 in1.5 mm
03:55 AM 57.1°F13.9°C 46.7°F8.2°C 68% 6.0 mph WSW9.7 kmh WSW 14.0 mph22.5 kmh 29.45 in997.3 mb 0.03 in0.8 mm 0.12 in3.0 mm 0.07 in1.8 mm
04:00 AM 56.8°F13.8°C 45.2°F7.3°C 65% 12.0 mph SW19.3 kmh SW 13.0 mph20.9 kmh 29.45 in997.3 mb 0.03 in0.8 mm 0.00 in0.0 mm 0.07 in1.8 mm
04:05 AM 56.9°F13.8°C 45.3°F7.4°C 65% 10.0 mph SW16.1 kmh SW 16.0 mph25.7 kmh 29.45 in997.3 mb 0.04 in1.0 mm 0.12 in3.0 mm 0.08 in2.0 mm
04:10 AM 56.8°F13.8°C 45.6°F7.6°C 66% 7.0 mph SW11.3 kmh SW 13.0 mph20.9 kmh 29.45 in997.3 mb 0.04 in1.0 mm 0.00 in0.0 mm 0.08 in2.0 mm
04:15 AM 56.5°F13.6°C 46.1°F7.8°C 68% 9.0 mph SW14.5 kmh SW 12.0 mph19.3 kmh 29.44 in997.0 mb 0.04 in1.0 mm 0.00 in0.0 mm 0.08 in2.0 mm
04:20 AM 56.4°F13.6°C 46.8°F8.2°C 70% 6.0 mph SW9.7 kmh SW 12.0 mph19.3 kmh 29.44 in997.0 mb 0.04 in1.0 mm 0.00 in0.0 mm 0.08 in2.0 mm
04:25 AM 56.3°F13.5°C 46.3°F7.9°C 69% 6.0 mph SW9.7 kmh SW 16.0 mph25.7 kmh 29.44 in997.0 mb 0.04 in1.0 mm 0.00 in0.0 mm 0.08 in2.0 mm
04:30 AM 56.1°F13.4°C 46.1°F7.8°C 69% 7.0 mph SW11.3 kmh SW 11.0 mph17.7 kmh 29.44 in997.0 mb 0.04 in1.0 mm 0.00 in0.0 mm 0.08 in2.0 mm
04:35 AM 56.3°F13.5°C 45.9°F7.7°C 68% 6.0 mph SW9.7 kmh SW 14.0 mph22.5 kmh 29.44 in997.0 mb 0.04 in1.0 mm 0.00 in0.0 mm 0.08 in2.0 mm
04:40 AM 56.2°F13.4°C 46.2°F7.9°C 69% 5.0 mph SW8.0 kmh SW 15.0 mph24.1 kmh 29.43 in996.6 mb 0.04 in1.0 mm 0.00 in0.0 mm 0.08 in2.0 mm
04:45 AM 56.1°F13.4°C 46.1°F7.8°C 69% 8.0 mph SW12.9 kmh SW 14.0 mph22.5 kmh 29.43 in996.6 mb 0.03 in0.8 mm 0.00 in0.0 mm 0.08 in2.0 mm
04:50 AM 56.0°F13.3°C 46.0°F7.8°C 69% 8.0 mph SW12.9 kmh SW 10.0 mph16.1 kmh 29.43 in996.6 mb 0.02 in0.5 mm 0.00 in0.0 mm 0.08 in2.0 mm
04:54 AM 55.7°F13.2°C 46.5°F8.1°C 71% 5.0 mph SW8.0 kmh SW 11.0 mph17.7 kmh 29.43 in996.6 mb 0.02 in0.5 mm 0.00 in0.0 mm 0.08 in2.0 mm
04:59 AM 55.6°F13.1°C 46.7°F8.2°C 72% 4.0 mph SW6.4 kmh SW 6.0 mph9.7 kmh 29.42 in996.3 mb 0.01 in0.3 mm 0.00 in0.0 mm 0.08 in2.0 mm
05:05 AM 55.4°F13.0°C 47.6°F8.7°C 75% 8.0 mph SW12.9 kmh SW 8.0 mph12.9 kmh 29.42 in996.3 mb 0.00 in0.0 mm 0.00 in0.0 mm 0.08 in2.0 mm
05:10 AM 55.5°F13.1°C 48.1°F8.9°C 76% 6.0 mph WSW9.7 kmh WSW 10.0 mph16.1 kmh 29.42 in996.3 mb 0.00 in0.0 mm 0.00 in0.0 mm 0.08 in2.0 mm
05:15 AM 55.5°F13.1°C 48.4°F9.1°C 77% 4.0 mph SW6.4 kmh SW 10.0 mph16.1 kmh 29.42 in996.3 mb 0.00 in0.0 mm 0.00 in0.0 mm 0.08 in2.0 mm
05:20 AM 55.7°F13.2°C 48.6°F9.2°C 77% 10.0 mph SW16.1 kmh SW 11.0 mph17.7 kmh 29.42 in996.3 mb 0.00 in0.0 mm 0.00 in0.0 mm 0.08 in2.0 mm
05:25 AM 56.0°F13.3°C 48.6°F9.2°C 76% 11.0 mph S17.7 kmh S 13.0 mph20.9 kmh 29.42 in996.3 mb 0.00 in0.0 mm 0.00 in0.0 mm 0.08 in2.0 mm
05:30 AM 56.6°F13.7°C 48.1°F8.9°C 73% 7.0 mph SW11.3 kmh SW 24.0 mph38.6 kmh 29.42 in996.3 mb 0.00 in0.0 mm 0.00 in0.0 mm 0.08 in2.0 mm
05:35 AM 56.7°F13.7°C 46.7°F8.2°C 69% 25.0 mph SW40.2 kmh SW 27.0 mph43.5 kmh 29.42 in996.3 mb 0.01 in0.3 mm 0.12 in3.0 mm 0.09 in2.3 mm
05:40 AM 56.9°F13.8°C 46.5°F8.1°C 68% 6.0 mph SW9.7 kmh SW 16.0 mph25.7 kmh 29.42 in996.3 mb 0.01 in0.3 mm 0.00 in0.0 mm 0.09 in2.3 mm
05:45 AM 56.5°F13.6°C 46.1°F7.8°C 68% 8.0 mph SW12.9 kmh SW 23.0 mph37.0 kmh 29.42 in996.3 mb 0.01 in0.3 mm 0.00 in0.0 mm 0.09 in2.3 mm
05:49 AM 56.7°F13.7°C 45.9°F7.7°C 67% 12.0 mph SW19.3 kmh SW 24.0 mph38.6 kmh 29.42 in996.3 mb 0.01 in0.3 mm 0.00 in0.0 mm 0.09 in2.3 mm
05:55 AM 56.6°F13.7°C 46.2°F7.9°C 68% 6.0 mph SW9.7 kmh SW 14.0 mph22.5 kmh 29.42 in996.3 mb 0.01 in0.3 mm 0.00 in0.0 mm 0.09 in2.3 mm
06:00 AM 56.4°F13.6°C 46.4°F8.0°C 69% 8.0 mph SW12.9 kmh SW 14.0 mph22.5 kmh 29.42 in996.3 mb 0.01 in0.3 mm 0.00 in0.0 mm 0.09 in2.3 mm
06:05 AM 56.5°F13.6°C 46.5°F8.1°C 69% 7.0 mph SW11.3 kmh SW 20.0 mph32.2 kmh 29.42 in996.3 mb 0.01 in0.3 mm 0.00 in0.0 mm 0.09 in2.3 mm
06:10 AM 56.2°F13.4°C 46.9°F8.3°C 71% 12.0 mph SW19.3 kmh SW 17.0 mph27.4 kmh 29.42 in996.3 mb 0.01 in0.3 mm 0.00 in0.0 mm 0.09 in2.3 mm
06:15 AM 56.0°F13.3°C 47.1°F8.4°C 72% 8.0 mph WSW12.9 kmh WSW 8.0 mph12.9 kmh 29.42 in996.3 mb 0.01 in0.3 mm 0.00 in0.0 mm 0.09 in2.3 mm
06:20 AM 55.8°F13.2°C 46.9°F8.3°C 72% 8.0 mph SW12.9 kmh SW 13.0 mph20.9 kmh 29.42 in996.3 mb 0.01 in0.3 mm 0.00 in0.0 mm 0.09 in2.3 mm
06:25 AM 55.8°F13.2°C 46.2°F7.9°C 70% 12.0 mph WSW19.3 kmh WSW 26.0 mph41.8 kmh 29.43 in996.6 mb 0.01 in0.3 mm 0.00 in0.0 mm 0.09 in2.3 mm
06:30 AM 55.5°F13.1°C 44.7°F7.1°C 67% 16.0 mph SW25.7 kmh SW 19.0 mph30.6 kmh 29.44 in997.0 mb 0.01 in0.3 mm 0.00 in0.0 mm 0.09 in2.3 mm
06:35 AM 54.9°F12.7°C 42.6°F5.9°C 63% 19.0 mph WSW30.6 kmh WSW 36.0 mph57.9 kmh 29.44 in997.0 mb 0.01 in0.3 mm 0.00 in0.0 mm 0.09 in2.3 mm
06:39 AM 54.4°F12.4°C 42.1°F5.6°C 63% 12.0 mph WSW19.3 kmh WSW 25.0 mph40.2 kmh 29.45 in997.3 mb 0.00 in0.0 mm 0.00 in0.0 mm 0.09 in2.3 mm
06:45 AM 52.8°F11.6°C 41.4°F5.2°C 65% 4.0 mph WSW6.4 kmh WSW 17.0 mph27.4 kmh 29.47 in998.0 mb 0.00 in0.0 mm 0.00 in0.0 mm 0.09 in2.3 mm
06:50 AM 50.4°F10.2°C 39.9°F4.4°C 67% 15.0 mph WNW24.1 kmh WNW 15.0 mph24.1 kmh 29.49 in998.6 mb 0.00 in0.0 mm 0.00 in0.0 mm 0.09 in2.3 mm
06:55 AM 48.3°F9.1°C 39.0°F3.9°C 70% 5.0 mph SW8.0 kmh SW 20.0 mph32.2 kmh 29.51 in999.3 mb 0.00 in0.0 mm 0.00 in0.0 mm 0.09 in2.3 mm
07:00 AM 46.9°F8.3°C 38.0°F3.3°C 71% 13.0 mph WSW20.9 kmh WSW 17.0 mph27.4 kmh 29.52 in999.7 mb 0.00 in0.0 mm 0.00 in0.0 mm 0.09 in2.3 mm
07:30 AM 42.2°F5.7°C 32.4°F0.2°C 68% 13.0 mph WSW20.9 kmh WSW 18.0 mph29.0 kmh 29.57 in1001.4 mb 0.00 in0.0 mm 0.00 in0.0 mm 0.09 in2.3 mm
07:35 AM 41.7°F5.4°C 32.7°F0.4°C 70% 3.0 mph WSW4.8 kmh WSW 14.0 mph22.5 kmh 29.58 in1001.7 mb 0.00 in0.0 mm 0.00 in0.0 mm 0.09 in2.3 mm
07:39 AM 41.4°F5.2°C 32.7°F0.4°C 71% 13.0 mph SW20.9 kmh SW 31.0 mph49.9 kmh 29.58 in1001.7 mb 0.00 in0.0 mm 0.00 in0.0 mm 0.09 in2.3 mm
07:45 AM 41.2°F5.1°C 32.5°F0.3°C 71% 8.0 mph WSW12.9 kmh WSW 23.0 mph37.0 kmh 29.58 in1001.7 mb 0.00 in0.0 mm 0.00 in0.0 mm 0.09 in2.3 mm
07:50 AM 41.0°F5.0°C 32.7°F0.4°C 72% 6.0 mph W9.7 kmh W 17.0 mph27.4 kmh 29.58 in1001.7 mb 0.00 in0.0 mm 0.00 in0.0 mm 0.09 in2.3 mm
07:55 AM 40.8°F4.9°C 32.5°F0.3°C 72% 11.0 mph SW17.7 kmh SW 17.0 mph27.4 kmh 29.58 in1001.7 mb 0.00 in0.0 mm 0.00 in0.0 mm 0.09 in2.3 mm
08:00 AM 40.7°F4.8°C 32.4°F0.2°C 72% 20.0 mph SW32.2 kmh SW 24.0 mph38.6 kmh 29.59 in1002.0 mb 0.00 in0.0 mm 0.00 in0.0 mm 0.09 in2.3 mm
08:04 AM 40.7°F4.8°C 32.4°F0.2°C 72% 16.0 mph SW25.7 kmh SW 20.0 mph32.2 kmh 29.59 in1002.0 mb 0.00 in0.0 mm 0.00 in0.0 mm 0.09 in2.3 mm
08:09 AM 40.6°F4.8°C 32.3°F0.2°C 72% 9.0 mph WSW14.5 kmh WSW 16.0 mph25.7 kmh 29.59 in1002.0 mb 0.00 in0.0 mm 0.00 in0.0 mm 0.09 in2.3 mm
08:15 AM 40.6°F4.8°C 32.6°F0.3°C 73% 10.0 mph W16.1 kmh W 19.0 mph30.6 kmh 29.59 in1002.0 mb 0.00 in0.0 mm 0.00 in0.0 mm 0.09 in2.3 mm
08:20 AM 40.5°F4.7°C 32.2°F0.1°C 72% 7.0 mph SW11.3 kmh SW 17.0 mph27.4 kmh 29.60 in1002.4 mb 0.00 in0.0 mm 0.00 in0.0 mm 0.09 in2.3 mm
08:25 AM 40.3°F4.6°C 32.4°F0.2°C 73% 8.0 mph WNW12.9 kmh WNW 21.0 mph33.8 kmh 29.60 in1002.4 mb 0.00 in0.0 mm 0.00 in0.0 mm 0.09 in2.3 mm
08:30 AM 40.1°F4.5°C 32.2°F0.1°C 73% 9.0 mph SW14.5 kmh SW 14.0 mph22.5 kmh 29.61 in1002.7 mb 0.00 in0.0 mm 0.00 in0.0 mm 0.09 in2.3 mm
08:35 AM 39.8°F4.3°C 31.9°F-0.1°C 73% 9.0 mph WSW14.5 kmh WSW 19.0 mph30.6 kmh 29.61 in1002.7 mb 0.00 in0.0 mm 0.00 in0.0 mm 0.09 in2.3 mm
08:40 AM 39.6°F4.2°C 31.3°F-0.4°C 72% 12.0 mph W19.3 kmh W 17.0 mph27.4 kmh 29.61 in1002.7 mb 0.00 in0.0 mm 0.00 in0.0 mm 0.09 in2.3 mm
08:45 AM 39.5°F4.2°C 31.2°F-0.4°C 72% 18.0 mph SW29.0 kmh SW 18.0 mph29.0 kmh 29.62 in1003.0 mb 0.00 in0.0 mm 0.00 in0.0 mm 0.09 in2.3 mm
08:50 AM 39.4°F4.1°C 31.1°F-0.5°C 72% 8.0 mph W12.9 kmh W 25.0 mph40.2 kmh 29.62 in1003.0 mb 0.00 in0.0 mm 0.00 in0.0 mm 0.09 in2.3 mm
08:54 AM 39.3°F4.1°C 31.4°F-0.3°C 73% 10.0 mph WNW16.1 kmh WNW 20.0 mph32.2 kmh 29.63 in1003.4 mb 0.00 in0.0 mm 0.00 in0.0 mm 0.09 in2.3 mm
09:00 AM 39.1°F3.9°C 31.5°F-0.3°C 74% 13.0 mph SW20.9 kmh SW 17.0 mph27.4 kmh 29.63 in1003.4 mb 0.00 in0.0 mm 0.00 in0.0 mm 0.09 in2.3 mm
09:05 AM 38.6°F3.7°C 31.0°F-0.6°C 74% 8.0 mph WSW12.9 kmh WSW 23.0 mph37.0 kmh 29.64 in1003.7 mb 0.00 in0.0 mm 0.00 in0.0 mm 0.09 in2.3 mm
09:10 AM 38.5°F3.6°C 31.3°F-0.4°C 75% 15.0 mph WSW24.1 kmh WSW 22.0 mph35.4 kmh 29.64 in1003.7 mb 0.00 in0.0 mm 0.00 in0.0 mm 0.09 in2.3 mm
09:14 AM 38.3°F3.5°C 31.4°F-0.3°C 76% 4.0 mph WSW6.4 kmh WSW 21.0 mph33.8 kmh 29.65 in1004.1 mb 0.00 in0.0 mm 0.00 in0.0 mm 0.09 in2.3 mm
09:20 AM 38.0°F3.3°C 31.4°F-0.3°C 77% 9.0 mph W14.5 kmh W 21.0 mph33.8 kmh 29.66 in1004.4 mb 0.00 in0.0 mm 0.00 in0.0 mm 0.09 in2.3 mm
09:25 AM 37.9°F3.3°C 31.7°F-0.2°C 78% 10.0 mph WNW16.1 kmh WNW 16.0 mph25.7 kmh 29.66 in1004.4 mb 0.00 in0.0 mm 0.00 in0.0 mm 0.09 in2.3 mm
09:30 AM 37.7°F3.2°C 31.2°F-0.4°C 77% 13.0 mph SW20.9 kmh SW 16.0 mph25.7 kmh 29.67 in1004.7 mb 0.00 in0.0 mm 0.00 in0.0 mm 0.09 in2.3 mm
09:35 AM 37.6°F3.1°C 31.1°F-0.5°C 77% 19.0 mph SW30.6 kmh SW 19.0 mph30.6 kmh 29.67 in1004.7 mb 0.00 in0.0 mm 0.00 in0.0 mm 0.09 in2.3 mm
09:40 AM 37.5°F3.1°C 31.0°F-0.6°C 77% 4.0 mph NW6.4 kmh NW 13.0 mph20.9 kmh 29.67 in1004.7 mb 0.00 in0.0 mm 0.00 in0.0 mm 0.09 in2.3 mm
09:45 AM 37.4°F3.0°C 30.5°F-0.8°C 76% 8.0 mph NW12.9 kmh NW 17.0 mph27.4 kmh 29.68 in1005.1 mb 0.00 in0.0 mm 0.00 in0.0 mm 0.09 in2.3 mm
09:49 AM 37.4°F3.0°C 30.5°F-0.8°C 76% 9.0 mph WNW14.5 kmh WNW 14.0 mph22.5 kmh 29.68 in1005.1 mb 0.00 in0.0 mm 0.00 in0.0 mm 0.09 in2.3 mm
09:55 AM 37.4°F3.0°C 30.2°F-1.0°C 75% 9.0 mph NW14.5 kmh NW 12.0 mph19.3 kmh 29.68 in1005.1 mb 0.00 in0.0 mm 0.00 in0.0 mm 0.09 in2.3 mm
10:00 AM 37.4°F3.0°C 29.9°F-1.2°C 74% 10.0 mph NW16.1 kmh NW 19.0 mph30.6 kmh 29.69 in1005.4 mb 0.00 in0.0 mm 0.00 in0.0 mm 0.09 in2.3 mm
10:04 AM 37.4°F3.0°C 29.9°F-1.2°C 74% 16.0 mph SW25.7 kmh SW 16.0 mph25.7 kmh 29.69 in1005.4 mb 0.00 in0.0 mm 0.00 in0.0 mm 0.09 in2.3 mm
10:10 AM 37.3°F2.9°C 29.8°F-1.2°C 74% 9.0 mph SW14.5 kmh SW 15.0 mph24.1 kmh 29.70 in1005.8 mb 0.00 in0.0 mm 0.00 in0.0 mm 0.09 in2.3 mm
10:15 AM 37.2°F2.9°C 29.7°F-1.3°C 74% 2.0 mph W3.2 kmh W 18.0 mph29.0 kmh 29.70 in1005.8 mb 0.00 in0.0 mm 0.00 in0.0 mm 0.09 in2.3 mm
10:20 AM 37.1°F2.8°C 29.3°F-1.5°C 73% 9.0 mph WNW14.5 kmh WNW 25.0 mph40.2 kmh 29.70 in1005.8 mb 0.00 in0.0 mm 0.00 in0.0 mm 0.09 in2.3 mm
10:25 AM 37.1°F2.8°C 29.3°F-1.5°C 73% 5.0 mph WSW8.0 kmh WSW 20.0 mph32.2 kmh 29.71 in1006.1 mb 0.00 in0.0 mm 0.00 in0.0 mm 0.09 in2.3 mm
10:29 AM 37.1°F2.8°C 29.3°F-1.5°C 73% 10.0 mph SSW16.1 kmh SSW 26.0 mph41.8 kmh 29.72 in1006.4 mb 0.00 in0.0 mm 0.00 in0.0 mm 0.09 in2.3 mm
10:35 AM 37.0°F2.8°C 29.5°F-1.4°C 74% 9.0 mph NW14.5 kmh NW 16.0 mph25.7 kmh 29.72 in1006.4 mb 0.00 in0.0 mm 0.00 in0.0 mm 0.09 in2.3 mm
10:40 AM 36.9°F2.7°C 29.4°F-1.4°C 74% 13.0 mph NW20.9 kmh NW 18.0 mph29.0 kmh 29.73 in1006.8 mb 0.00 in0.0 mm 0.00 in0.0 mm 0.09 in2.3 mm
10:45 AM 36.9°F2.7°C 29.4°F-1.4°C 74% 8.0 mph W12.9 kmh W 16.0 mph25.7 kmh 29.73 in1006.8 mb 0.00 in0.0 mm 0.00 in0.0 mm 0.09 in2.3 mm
10:50 AM 36.9°F2.7°C 29.7°F-1.3°C 75% 8.0 mph W12.9 kmh W 15.0 mph24.1 kmh 29.73 in1006.8 mb 0.00 in0.0 mm 0.00 in0.0 mm 0.09 in2.3 mm
10:55 AM 36.9°F2.7°C 29.7°F-1.3°C 75% 11.0 mph WSW17.7 kmh WSW 17.0 mph27.4 kmh 29.74 in1007.1 mb 0.00 in0.0 mm 0.00 in0.0 mm 0.09 in2.3 mm
11:00 AM 36.8°F2.7°C 29.3°F-1.5°C 74% 12.0 mph W19.3 kmh W 18.0 mph29.0 kmh 29.75 in1007.5 mb 0.00 in0.0 mm 0.00 in0.0 mm 0.09 in2.3 mm
11:05 AM 36.7°F2.6°C 29.2°F-1.6°C 74% 10.0 mph W16.1 kmh W 21.0 mph33.8 kmh 29.75 in1007.5 mb 0.00 in0.0 mm 0.00 in0.0 mm 0.09 in2.3 mm
11:10 AM 36.8°F2.7°C 29.3°F-1.5°C 74% 7.0 mph W11.3 kmh W 15.0 mph24.1 kmh 29.75 in1007.5 mb 0.00 in0.0 mm 0.00 in0.0 mm 0.09 in2.3 mm
11:15 AM 36.7°F2.6°C 29.9°F-1.2°C 76% 6.0 mph W9.7 kmh W 13.0 mph20.9 kmh 29.76 in1007.8 mb 0.00 in0.0 mm 0.00 in0.0 mm 0.09 in2.3 mm
11:20 AM 36.4°F2.4°C 29.9°F-1.2°C 77% 14.0 mph W22.5 kmh W 15.0 mph24.1 kmh 29.76 in1007.8 mb 0.00 in0.0 mm 0.00 in0.0 mm 0.09 in2.3 mm
03:00 PM 39.5°F4.2°C 28.4°F-2.0°C 64% 8.0 mph WNW12.9 kmh WNW 11.0 mph17.7 kmh 29.89 in1012.2 mb 0.00 in0.0 mm 0.00 in0.0 mm 0.09 in2.3 mm
03:05 PM 39.7°F4.3°C 27.4°F-2.6°C 61% 15.0 mph WNW24.1 kmh WNW 19.0 mph30.6 kmh 29.89 in1012.2 mb 0.00 in0.0 mm 0.00 in0.0 mm 0.09 in2.3 mm
03:10 PM 39.5°F4.2°C 26.8°F-2.9°C 60% 8.0 mph W12.9 kmh W 21.0 mph33.8 kmh 29.89 in1012.2 mb 0.00 in0.0 mm 0.00 in0.0 mm 0.09 in2.3 mm
03:15 PM 39.9°F4.4°C 28.0°F-2.2°C 62% 9.0 mph WSW14.5 kmh WSW 18.0 mph29.0 kmh 29.90 in1012.5 mb 0.00 in0.0 mm 0.00 in0.0 mm 0.09 in2.3 mm
03:20 PM 40.4°F4.7°C 28.0°F-2.2°C 61% 8.0 mph WSW12.9 kmh WSW 18.0 mph29.0 kmh 29.90 in1012.5 mb 0.00 in0.0 mm 0.00 in0.0 mm 0.09 in2.3 mm
03:24 PM 40.5°F4.7°C 26.9°F-2.8°C 58% 5.0 mph WSW8.0 kmh WSW 19.0 mph30.6 kmh 29.91 in1012.9 mb 0.00 in0.0 mm 0.00 in0.0 mm 0.09 in2.3 mm
03:30 PM 40.7°F4.8°C 26.7°F-2.9°C 57% 10.0 mph NW16.1 kmh NW 27.0 mph43.5 kmh 29.91 in1012.9 mb 0.00 in0.0 mm 0.00 in0.0 mm 0.09 in2.3 mm
03:35 PM 40.5°F4.7°C 26.5°F-3.1°C 57% 28.0 mph SW45.1 kmh SW 28.0 mph45.1 kmh 29.92 in1013.2 mb 0.00 in0.0 mm 0.00 in0.0 mm 0.09 in2.3 mm
03:40 PM 40.2°F4.6°C 25.3°F-3.7°C 55% 8.0 mph NW12.9 kmh NW 18.0 mph29.0 kmh 29.92 in1013.2 mb 0.00 in0.0 mm 0.00 in0.0 mm 0.09 in2.3 mm
03:45 PM 40.4°F4.7°C 26.4°F-3.1°C 57% 18.0 mph NW29.0 kmh NW 18.0 mph29.0 kmh 29.92 in1013.2 mb 0.00 in0.0 mm 0.00 in0.0 mm 0.09 in2.3 mm
03:49 PM 40.5°F4.7°C 26.9°F-2.8°C 58% 6.0 mph SW9.7 kmh SW 14.0 mph22.5 kmh 29.92 in1013.2 mb 0.00 in0.0 mm 0.00 in0.0 mm 0.09 in2.3 mm
03:55 PM 41.1°F5.1°C 27.9°F-2.3°C 59% 11.0 mph WNW17.7 kmh WNW 23.0 mph37.0 kmh 29.92 in1013.2 mb 0.00 in0.0 mm 0.00 in0.0 mm 0.09 in2.3 mm
04:00 PM 41.0°F5.0°C 26.1°F-3.3°C 55% 11.0 mph W17.7 kmh W 20.0 mph32.2 kmh 29.93 in1013.5 mb 0.00 in0.0 mm 0.00 in0.0 mm 0.09 in2.3 mm
04:05 PM 41.0°F5.0°C 27.0°F-2.8°C 57% 17.0 mph WSW27.4 kmh WSW 17.0 mph27.4 kmh 29.93 in1013.5 mb 0.00 in0.0 mm 0.00 in0.0 mm 0.09 in2.3 mm
04:10 PM 41.3°F5.2°C 27.2°F-2.7°C 57% 17.0 mph SW27.4 kmh SW 21.0 mph33.8 kmh 29.92 in1013.2 mb 0.00 in0.0 mm 0.00 in0.0 mm 0.09 in2.3 mm
04:15 PM 41.2°F5.1°C 27.1°F-2.7°C 57% 6.0 mph SW9.7 kmh SW 22.0 mph35.4 kmh 29.93 in1013.5 mb 0.00 in0.0 mm 0.00 in0.0 mm 0.09 in2.3 mm
04:20 PM 40.9°F4.9°C 24.7°F-4.1°C 52% 12.0 mph W19.3 kmh W 20.0 mph32.2 kmh 29.95 in1014.2 mb 0.00 in0.0 mm 0.00 in0.0 mm 0.09 in2.3 mm
04:25 PM 40.6°F4.8°C 24.8°F-4.0°C 53% 10.0 mph WNW16.1 kmh WNW 13.0 mph20.9 kmh 29.94 in1013.9 mb 0.00 in0.0 mm 0.00 in0.0 mm 0.09 in2.3 mm
04:30 PM 40.5°F4.7°C 25.6°F-3.6°C 55% 5.0 mph NW8.0 kmh NW 11.0 mph17.7 kmh 29.94 in1013.9 mb 0.00 in0.0 mm 0.00 in0.0 mm 0.09 in2.3 mm
04:35 PM 40.9°F4.9°C 26.0°F-3.3°C 55% 12.0 mph W19.3 kmh W 29.0 mph46.7 kmh 29.95 in1014.2 mb 0.00 in0.0 mm 0.00 in0.0 mm 0.09 in2.3 mm
04:40 PM 40.9°F4.9°C 26.0°F-3.3°C 55% 10.0 mph WNW16.1 kmh WNW 21.0 mph33.8 kmh 29.95 in1014.2 mb 0.00 in0.0 mm 0.00 in0.0 mm 0.09 in2.3 mm
04:45 PM 41.0°F5.0°C 26.5°F-3.1°C 56% 4.0 mph NW6.4 kmh NW 21.0 mph33.8 kmh 29.96 in1014.6 mb 0.00 in0.0 mm 0.00 in0.0 mm 0.09 in2.3 mm
04:49 PM 40.8°F4.9°C 25.0°F-3.9°C 53% 11.0 mph NW17.7 kmh NW 18.0 mph29.0 kmh 29.96 in1014.6 mb 0.00 in0.0 mm 0.00 in0.0 mm 0.09 in2.3 mm
04:55 PM 40.6°F4.8°C 23.9°F-4.5°C 51% 11.0 mph WSW17.7 kmh WSW 18.0 mph29.0 kmh 29.96 in1014.6 mb 0.00 in0.0 mm 0.00 in0.0 mm 0.09 in2.3 mm
05:00 PM 40.8°F4.9°C 25.0°F-3.9°C 53% 7.0 mph WSW11.3 kmh WSW 15.0 mph24.1 kmh 29.97 in1014.9 mb 0.00 in0.0 mm 0.00 in0.0 mm 0.09 in2.3 mm
05:05 PM 40.7°F4.8°C 24.9°F-3.9°C 53% 6.0 mph W9.7 kmh W 15.0 mph24.1 kmh 29.97 in1014.9 mb 0.00 in0.0 mm 0.00 in0.0 mm 0.09 in2.3 mm
05:10 PM 41.0°F5.0°C 24.3°F-4.3°C 51% 7.0 mph NW11.3 kmh NW 12.0 mph19.3 kmh 29.97 in1014.9 mb 0.00 in0.0 mm 0.00 in0.0 mm 0.09 in2.3 mm
05:14 PM 40.9°F4.9°C 23.2°F-4.9°C 49% 12.0 mph W19.3 kmh W 13.0 mph20.9 kmh 29.97 in1014.9 mb 0.00 in0.0 mm 0.00 in0.0 mm 0.09 in2.3 mm
05:20 PM 40.8°F4.9°C 24.1°F-4.4°C 51% 3.0 mph WSW4.8 kmh WSW 10.0 mph16.1 kmh 29.97 in1014.9 mb 0.00 in0.0 mm 0.00 in0.0 mm 0.09 in2.3 mm
05:25 PM 41.4°F5.2°C 26.0°F-3.3°C 54% 13.0 mph WNW20.9 kmh WNW 15.0 mph24.1 kmh 29.98 in1015.2 mb 0.00 in0.0 mm 0.00 in0.0 mm 0.09 in2.3 mm
05:30 PM 41.3°F5.2°C 25.0°F-3.9°C 52% 8.0 mph NW12.9 kmh NW 19.0 mph30.6 kmh 29.98 in1015.2 mb 0.00 in0.0 mm 0.00 in0.0 mm 0.09 in2.3 mm
05:35 PM 40.6°F4.8°C 25.3°F-3.7°C 54% 13.0 mph SW20.9 kmh SW 18.0 mph29.0 kmh 29.99 in1015.6 mb 0.00 in0.0 mm 0.00 in0.0 mm 0.09 in2.3 mm
05:40 PM 40.3°F4.6°C 25.4°F-3.7°C 55% 14.0 mph WSW22.5 kmh WSW 19.0 mph30.6 kmh 29.99 in1015.6 mb 0.00 in0.0 mm 0.00 in0.0 mm 0.09 in2.3 mm
05:45 PM 40.6°F4.8°C 26.2°F-3.2°C 56% 8.0 mph W12.9 kmh W 10.0 mph16.1 kmh 30.00 in1015.9 mb 0.00 in0.0 mm 0.00 in0.0 mm 0.09 in2.3 mm
05:50 PM 40.5°F4.7°C 23.3°F-4.8°C 50% 5.0 mph WSW8.0 kmh WSW 16.0 mph25.7 kmh 30.00 in1015.9 mb 0.00 in0.0 mm 0.00 in0.0 mm 0.09 in2.3 mm
05:55 PM 39.7°F4.3°C 23.1°F-4.9°C 51% 8.0 mph WNW12.9 kmh WNW 14.0 mph22.5 kmh 30.00 in1015.9 mb 0.00 in0.0 mm 0.00 in0.0 mm 0.09 in2.3 mm
06:00 PM 39.5°F4.2°C 24.7°F-4.1°C 55% 14.0 mph WSW22.5 kmh WSW 20.0 mph32.2 kmh 30.00 in1015.9 mb 0.00 in0.0 mm 0.00 in0.0 mm 0.09 in2.3 mm
06:05 PM 39.4°F4.1°C 24.2°F-4.3°C 54% 14.0 mph W22.5 kmh W 25.0 mph40.2 kmh 30.00 in1015.9 mb 0.00 in0.0 mm 0.00 in0.0 mm 0.09 in2.3 mm
06:10 PM 39.2°F4.0°C 22.6°F-5.2°C 51% 11.0 mph WSW17.7 kmh WSW 26.0 mph41.8 kmh 30.01 in1016.3 mb 0.00 in0.0 mm 0.00 in0.0 mm 0.09 in2.3 mm
06:14 PM 38.7°F3.7°C 21.7°F-5.7°C 50% 12.0 mph W19.3 kmh W 15.0 mph24.1 kmh 30.02 in1016.6 mb 0.00 in0.0 mm 0.00 in0.0 mm 0.09 in2.3 mm
06:20 PM 38.3°F3.5°C 21.8°F-5.7°C 51% 4.0 mph NW6.4 kmh NW 15.0 mph24.1 kmh 30.02 in1016.6 mb 0.00 in0.0 mm 0.00 in0.0 mm 0.09 in2.3 mm
06:25 PM 38.3°F3.5°C 22.2°F-5.4°C 52% 5.0 mph NW8.0 kmh NW 16.0 mph25.7 kmh 30.01 in1016.3 mb 0.00 in0.0 mm 0.00 in0.0 mm 0.09 in2.3 mm
06:29 PM 38.3°F3.5°C 22.7°F-5.2°C 53% 5.0 mph WNW8.0 kmh WNW 13.0 mph20.9 kmh 30.02 in1016.6 mb 0.00 in0.0 mm 0.00 in0.0 mm 0.09 in2.3 mm
06:34 PM 38.3°F3.5°C 23.1°F-4.9°C 54% 6.0 mph SW9.7 kmh SW 12.0 mph19.3 kmh 30.02 in1016.6 mb 0.00 in0.0 mm 0.00 in0.0 mm 0.09 in2.3 mm
06:40 PM 38.4°F3.6°C 24.1°F-4.4°C 56% 8.0 mph WNW12.9 kmh WNW 12.0 mph19.3 kmh 30.02 in1016.6 mb 0.00 in0.0 mm 0.00 in0.0 mm 0.09 in2.3 mm
06:45 PM 38.5°F3.6°C 24.2°F-4.3°C 56% 15.0 mph NW24.1 kmh NW 15.0 mph24.1 kmh 30.03 in1016.9 mb 0.00 in0.0 mm 0.00 in0.0 mm 0.09 in2.3 mm
06:50 PM 38.1°F3.4°C 24.2°F-4.3°C 57% 14.0 mph W22.5 kmh W 20.0 mph32.2 kmh 30.03 in1016.9 mb 0.00 in0.0 mm 0.00 in0.0 mm 0.09 in2.3 mm
06:55 PM 37.7°F3.2°C 23.9°F-4.5°C 57% 6.0 mph SW9.7 kmh SW 14.0 mph22.5 kmh 30.03 in1016.9 mb 0.00 in0.0 mm 0.00 in0.0 mm 0.09 in2.3 mm
07:00 PM 37.2°F2.9°C 23.8°F-4.6°C 58% 12.0 mph NW19.3 kmh NW 22.0 mph35.4 kmh 30.03 in1016.9 mb 0.00 in0.0 mm 0.00 in0.0 mm 0.09 in2.3 mm
07:05 PM 36.9°F2.7°C 23.5°F-4.7°C 58% 9.0 mph W14.5 kmh W 17.0 mph27.4 kmh 30.04 in1017.3 mb 0.00 in0.0 mm 0.00 in0.0 mm 0.09 in2.3 mm
07:09 PM 36.8°F2.7°C 23.0°F-5.0°C 57% 14.0 mph WSW22.5 kmh WSW 20.0 mph32.2 kmh 30.05 in1017.6 mb 0.00 in0.0 mm 0.00 in0.0 mm 0.09 in2.3 mm
07:15 PM 36.3°F2.4°C 20.8°F-6.2°C 53% 9.0 mph NW14.5 kmh NW 16.0 mph25.7 kmh 30.05 in1017.6 mb 0.00 in0.0 mm 0.00 in0.0 mm 0.09 in2.3 mm
07:20 PM 35.6°F2.0°C 20.2°F-6.6°C 53% 3.0 mph NW4.8 kmh NW 15.0 mph24.1 kmh 30.05 in1017.6 mb 0.00 in0.0 mm 0.00 in0.0 mm 0.09 in2.3 mm
07:24 PM 35.2°F1.8°C 20.2°F-6.6°C 54% 3.0 mph NNW4.8 kmh NNW 14.0 mph22.5 kmh 30.06 in1017.9 mb 0.00 in0.0 mm 0.00 in0.0 mm 0.09 in2.3 mm
07:30 PM 34.9°F1.6°C 20.8°F-6.2°C 56% 4.0 mph NW6.4 kmh NW 12.0 mph19.3 kmh 30.06 in1017.9 mb 0.00 in0.0 mm 0.00 in0.0 mm 0.09 in2.3 mm
07:35 PM 34.8°F1.6°C 21.5°F-5.8°C 58% 8.0 mph WSW12.9 kmh WSW 15.0 mph24.1 kmh 30.06 in1017.9 mb 0.00 in0.0 mm 0.00 in0.0 mm 0.09 in2.3 mm
07:40 PM 34.8°F1.6°C 22.0°F-5.6°C 59% 9.0 mph NW14.5 kmh NW 21.0 mph33.8 kmh 30.07 in1018.3 mb 0.00 in0.0 mm 0.00 in0.0 mm 0.09 in2.3 mm
07:45 PM 34.7°F1.5°C 21.9°F-5.6°C 59% 9.0 mph NW14.5 kmh NW 19.0 mph30.6 kmh 30.06 in1017.9 mb 0.00 in0.0 mm 0.00 in0.0 mm 0.09 in2.3 mm
07:49 PM 34.6°F1.4°C 21.8°F-5.7°C 59% 13.0 mph NW20.9 kmh NW 14.0 mph22.5 kmh 30.07 in1018.3 mb 0.00 in0.0 mm 0.00 in0.0 mm 0.09 in2.3 mm
07:55 PM 34.4°F1.3°C 21.6°F-5.8°C 59% 5.0 mph NW8.0 kmh NW 13.0 mph20.9 kmh 30.07 in1018.3 mb 0.00 in0.0 mm 0.00 in0.0 mm 0.09 in2.3 mm
08:00 PM 34.3°F1.3°C 21.9°F-5.6°C 60% 16.0 mph NW25.7 kmh NW 18.0 mph29.0 kmh 30.07 in1018.3 mb 0.00 in0.0 mm 0.00 in0.0 mm 0.09 in2.3 mm
08:05 PM 34.2°F1.2°C 22.2°F-5.4°C 61% 11.0 mph W17.7 kmh W 21.0 mph33.8 kmh 30.08 in1018.6 mb 0.00 in0.0 mm 0.00 in0.0 mm 0.09 in2.3 mm
08:10 PM 34.0°F1.1°C 22.7°F-5.2°C 63% 9.0 mph NW14.5 kmh NW 20.0 mph32.2 kmh 30.08 in1018.6 mb 0.00 in0.0 mm 0.00 in0.0 mm 0.09 in2.3 mm
08:15 PM 33.8°F1.0°C 22.9°F-5.1°C 64% 14.0 mph WSW22.5 kmh WSW 16.0 mph25.7 kmh 30.08 in1018.6 mb 0.00 in0.0 mm 0.00 in0.0 mm 0.09 in2.3 mm
08:20 PM 33.7°F0.9°C 22.1°F-5.5°C 62% 10.0 mph W16.1 kmh W 20.0 mph32.2 kmh 30.08 in1018.6 mb 0.00 in0.0 mm 0.00 in0.0 mm 0.09 in2.3 mm
08:25 PM 33.6°F0.9°C 21.6°F-5.8°C 61% 10.0 mph NW16.1 kmh NW 14.0 mph22.5 kmh 30.08 in1018.6 mb 0.00 in0.0 mm 0.00 in0.0 mm 0.09 in2.3 mm
08:29 PM 33.3°F0.7°C 20.5°F-6.4°C 59% 12.0 mph WNW19.3 kmh WNW 22.0 mph35.4 kmh 30.09 in1019.0 mb 0.00 in0.0 mm 0.00 in0.0 mm 0.09 in2.3 mm
08:34 PM 33.0°F0.6°C 20.3°F-6.5°C 59% 10.0 mph WNW16.1 kmh WNW 15.0 mph24.1 kmh 30.10 in1019.3 mb 0.00 in0.0 mm 0.00 in0.0 mm 0.09 in2.3 mm
08:40 PM 32.8°F0.4°C 20.1°F-6.6°C 59% 8.0 mph NW12.9 kmh NW 20.0 mph32.2 kmh 30.09 in1019.0 mb 0.00 in0.0 mm 0.00 in0.0 mm 0.09 in2.3 mm
08:45 PM 32.6°F0.3°C 20.3°F-6.5°C 60% 3.0 mph WNW4.8 kmh WNW 16.0 mph25.7 kmh 30.09 in1019.0 mb 0.00 in0.0 mm 0.00 in0.0 mm 0.09 in2.3 mm
08:50 PM 32.4°F0.2°C 20.1°F-6.6°C 60% 14.0 mph W22.5 kmh W 15.0 mph24.1 kmh 30.10 in1019.3 mb 0.00 in0.0 mm 0.00 in0.0 mm 0.09 in2.3 mm
08:55 PM 32.2°F0.1°C 20.7°F-6.3°C 62% 10.0 mph W16.1 kmh W 12.0 mph19.3 kmh 30.10 in1019.3 mb 0.00 in0.0 mm 0.00 in0.0 mm 0.09 in2.3 mm
09:00 PM 32.0°F0.0°C 20.5°F-6.4°C 62% 5.0 mph NW8.0 kmh NW 17.0 mph27.4 kmh 30.11 in1019.6 mb 0.00 in0.0 mm 0.00 in0.0 mm 0.09 in2.3 mm
09:05 PM 31.9°F-0.1°C 20.8°F-6.2°C 63% 8.0 mph NW12.9 kmh NW 13.0 mph20.9 kmh 30.11 in1019.6 mb 0.00 in0.0 mm 0.00 in0.0 mm 0.09 in2.3 mm
09:10 PM 31.7°F-0.2°C 20.6°F-6.3°C 63% 7.0 mph NW11.3 kmh NW 10.0 mph16.1 kmh 30.11 in1019.6 mb 0.00 in0.0 mm 0.00 in0.0 mm 0.09 in2.3 mm
09:15 PM 31.6°F-0.2°C 20.8°F-6.2°C 64% 5.0 mph NW8.0 kmh NW 10.0 mph16.1 kmh 30.11 in1019.6 mb 0.00 in0.0 mm 0.00 in0.0 mm 0.09 in2.3 mm
09:20 PM 31.5°F-0.3°C 21.1°F-6.1°C 65% 6.0 mph W9.7 kmh W 13.0 mph20.9 kmh 30.11 in1019.6 mb 0.00 in0.0 mm 0.00 in0.0 mm 0.09 in2.3 mm
09:25 PM 31.4°F-0.3°C 21.4°F-5.9°C 66% 1.0 mph WSW1.6 kmh WSW 12.0 mph19.3 kmh 30.11 in1019.6 mb 0.00 in0.0 mm 0.00 in0.0 mm 0.09 in2.3 mm
09:30 PM 31.4°F-0.3°C 21.0°F-6.1°C 65% 8.0 mph W12.9 kmh W 16.0 mph25.7 kmh 30.12 in1020.0 mb 0.00 in0.0 mm 0.00 in0.0 mm 0.09 in2.3 mm
09:35 PM 31.3°F-0.4°C 21.3°F-5.9°C 66% 6.0 mph NW9.7 kmh NW 11.0 mph17.7 kmh 30.12 in1020.0 mb 0.00 in0.0 mm 0.00 in0.0 mm 0.09 in2.3 mm
09:40 PM 31.3°F-0.4°C 21.3°F-5.9°C 66% 10.0 mph W16.1 kmh W 17.0 mph27.4 kmh 30.12 in1020.0 mb 0.00 in0.0 mm 0.00 in0.0 mm 0.09 in2.3 mm
09:45 PM 31.3°F-0.4°C 21.3°F-5.9°C 66% 2.0 mph W3.2 kmh W 12.0 mph19.3 kmh 30.12 in1020.0 mb 0.00 in0.0 mm 0.00 in0.0 mm 0.09 in2.3 mm
09:50 PM 31.1°F-0.5°C 20.4°F-6.4°C 64% 13.0 mph NW20.9 kmh NW 21.0 mph33.8 kmh 30.12 in1020.0 mb 0.00 in0.0 mm 0.00 in0.0 mm 0.09 in2.3 mm
09:55 PM 31.0°F-0.6°C 19.9°F-6.7°C 63% 6.0 mph W9.7 kmh W 13.0 mph20.9 kmh 30.13 in1020.3 mb 0.00 in0.0 mm 0.00 in0.0 mm 0.09 in2.3 mm
10:00 PM 30.9°F-0.6°C 19.4°F-7.0°C 62% 7.0 mph W11.3 kmh W 11.0 mph17.7 kmh 30.13 in1020.3 mb 0.00 in0.0 mm 0.00 in0.0 mm 0.09 in2.3 mm
10:05 PM 30.7°F-0.7°C 19.6°F-6.9°C 63% 8.0 mph WSW12.9 kmh WSW 17.0 mph27.4 kmh 30.13 in1020.3 mb 0.00 in0.0 mm 0.00 in0.0 mm 0.09 in2.3 mm
10:10 PM 30.7°F-0.7°C 19.6°F-6.9°C 63% 8.0 mph NW12.9 kmh NW 12.0 mph19.3 kmh 30.14 in1020.7 mb 0.00 in0.0 mm 0.00 in0.0 mm 0.09 in2.3 mm
10:15 PM 30.6°F-0.8°C 19.9°F-6.7°C 64% 11.0 mph W17.7 kmh W 16.0 mph25.7 kmh 30.14 in1020.7 mb 0.00 in0.0 mm 0.00 in0.0 mm 0.09 in2.3 mm
10:20 PM 30.6°F-0.8°C 19.9°F-6.7°C 64% 10.0 mph NW16.1 kmh NW 16.0 mph25.7 kmh 30.14 in1020.7 mb 0.00 in0.0 mm 0.00 in0.0 mm 0.09 in2.3 mm
10:25 PM 30.5°F-0.8°C 19.8°F-6.8°C 64% 9.0 mph WNW14.5 kmh WNW 11.0 mph17.7 kmh 30.15 in1021.0 mb 0.00 in0.0 mm 0.00 in0.0 mm 0.09 in2.3 mm
10:30 PM 30.4°F-0.9°C 19.3°F-7.1°C 63% 7.0 mph NW11.3 kmh NW 14.0 mph22.5 kmh 30.15 in1021.0 mb 0.00 in0.0 mm 0.00 in0.0 mm 0.09 in2.3 mm
10:35 PM 30.3°F-0.9°C 19.6°F-6.9°C 64% 4.0 mph WNW6.4 kmh WNW 13.0 mph20.9 kmh 30.16 in1021.3 mb 0.00 in0.0 mm 0.00 in0.0 mm 0.09 in2.3 mm
10:40 PM 30.2°F-1.0°C 19.5°F-6.9°C 64% 8.0 mph W12.9 kmh W 13.0 mph20.9 kmh 30.15 in1021.0 mb 0.00 in0.0 mm 0.00 in0.0 mm 0.09 in2.3 mm
10:45 PM 30.2°F-1.0°C 19.5°F-6.9°C 64% 10.0 mph NW16.1 kmh NW 13.0 mph20.9 kmh 30.16 in1021.3 mb 0.00 in0.0 mm 0.00 in0.0 mm 0.09 in2.3 mm
10:50 PM 30.2°F-1.0°C 19.5°F-6.9°C 64% 10.0 mph WNW16.1 kmh WNW 18.0 mph29.0 kmh 30.16 in1021.3 mb 0.00 in0.0 mm 0.00 in0.0 mm 0.09 in2.3 mm
10:55 PM 30.1°F-1.1°C 19.8°F-6.8°C 65% 12.0 mph NW19.3 kmh NW 13.0 mph20.9 kmh 30.16 in1021.3 mb 0.00 in0.0 mm 0.00 in0.0 mm 0.09 in2.3 mm
11:00 PM 30.0°F-1.1°C 19.7°F-6.8°C 65% 6.0 mph W9.7 kmh W 9.0 mph14.5 kmh 30.17 in1021.7 mb 0.00 in0.0 mm 0.00 in0.0 mm 0.09 in2.3 mm
11:05 PM 29.9°F-1.2°C 19.6°F-6.9°C 65% 6.0 mph WNW9.7 kmh WNW 11.0 mph17.7 kmh 30.17 in1021.7 mb 0.00 in0.0 mm 0.00 in0.0 mm 0.09 in2.3 mm
11:10 PM 29.8°F-1.2°C 19.8°F-6.8°C 66% 9.0 mph W14.5 kmh W 19.0 mph30.6 kmh 30.17 in1021.7 mb 0.00 in0.0 mm 0.00 in0.0 mm 0.09 in2.3 mm
11:15 PM 29.7°F-1.3°C 19.4°F-7.0°C 65% 11.0 mph NW17.7 kmh NW 15.0 mph24.1 kmh 30.18 in1022.0 mb 0.00 in0.0 mm 0.00 in0.0 mm 0.09 in2.3 mm
11:20 PM 29.5°F-1.4°C 19.2°F-7.1°C 65% 6.0 mph SW9.7 kmh SW 16.0 mph25.7 kmh 30.18 in1022.0 mb 0.00 in0.0 mm 0.00 in0.0 mm 0.09 in2.3 mm
11:25 PM 29.4°F-1.4°C 19.5°F-6.9°C 66% 3.0 mph W4.8 kmh W 12.0 mph19.3 kmh 30.18 in1022.0 mb 0.00 in0.0 mm 0.00 in0.0 mm 0.09 in2.3 mm
11:30 PM 29.2°F-1.6°C 18.9°F-7.3°C 65% 7.0 mph WNW11.3 kmh WNW 18.0 mph29.0 kmh 30.18 in1022.0 mb 0.00 in0.0 mm 0.00 in0.0 mm 0.09 in2.3 mm
11:34 PM 29.0°F-1.7°C 18.7°F-7.4°C 65% 7.0 mph SW11.3 kmh SW 14.0 mph22.5 kmh 30.18 in1022.0 mb 0.00 in0.0 mm 0.00 in0.0 mm 0.09 in2.3 mm
11:40 PM 28.9°F-1.7°C 18.6°F-7.4°C 65% 7.0 mph NW11.3 kmh NW 15.0 mph24.1 kmh 30.19 in1022.4 mb 0.00 in0.0 mm 0.00 in0.0 mm 0.09 in2.3 mm
11:45 PM 28.8°F-1.8°C 18.2°F-7.7°C 64% 7.0 mph NW11.3 kmh NW 13.0 mph20.9 kmh 30.19 in1022.4 mb 0.00 in0.0 mm 0.00 in0.0 mm 0.09 in2.3 mm
11:50 PM 28.6°F-1.9°C 18.0°F-7.8°C 64% 11.0 mph NW17.7 kmh NW 13.0 mph20.9 kmh 30.19 in1022.4 mb 0.00 in0.0 mm 0.00 in0.0 mm 0.09 in2.3 mm
11:55 PM 28.6°F-1.9°C 18.0°F-7.8°C 64% 3.0 mph W4.8 kmh W 16.0 mph25.7 kmh 30.19 in1022.4 mb 0.00 in0.0 mm 0.00 in0.0 mm 0.09 in2.3 mm